Ruby, Michigan
Current Conditions -  °F | °C
As of 12:16 AM on Thursday 23 Oct 2014 (Local Time) from KPHN Reporting Station
Clear Clear  
Wind Chill: 33°   Ceiling: Unl
Heat Index: 37°   Visibility: 10mi
Dew Point: 36°   Wind: 6mph
Humidity: 93%   Direction: 310°NW
Pressure: 30.27"   Gusts: NA
Location:  43.0355°N, 82.5759°W
Report Text: KPHN 230416Z AUTO 31005KT 10SM CLR 03/02 A3027 RMK AO2
Loading
Personal Weather Stations






























Interactive Weather Map
Tropical Storm Tracking
New forecast layout! Learn more

10-Day Weather Forecast

Advertisements
Track Severe Weather on mobile